createdAt,value
2022-11-16T00:00:24.314Z,11.45
2022-11-16T00:01:24.277Z,11.46
2022-11-16T00:02:24.306Z,11.45
2022-11-16T00:03:24.234Z,11.46
2022-11-16T00:04:24.253Z,11.45
2022-11-16T00:05:28.097Z,11.46
2022-11-16T00:06:24.240Z,11.45
2022-11-16T00:07:24.240Z,11.45
2022-11-16T00:08:24.193Z,11.45
2022-11-16T00:09:24.172Z,11.44
2022-11-16T00:10:24.165Z,11.45
2022-11-16T00:11:24.105Z,11.44
2022-11-16T00:12:24.123Z,11.44
2022-11-16T00:13:24.113Z,11.44
2022-11-16T00:14:24.077Z,11.44
2022-11-16T00:15:24.054Z,11.44
2022-11-16T00:16:24.103Z,11.44
2022-11-16T00:17:24.054Z,11.44
2022-11-16T00:18:24.121Z,11.44
2022-11-16T00:19:24.092Z,11.42
2022-11-16T00:20:23.992Z,11.44
2022-11-16T00:21:24.000Z,11.42
2022-11-16T00:22:24.796Z,11.44
2022-11-16T00:23:23.991Z,11.44
2022-11-16T00:24:23.948Z,11.44
2022-11-16T00:25:23.950Z,11.42
2022-11-16T00:26:23.953Z,11.42
2022-11-16T00:27:24.664Z,11.41
2022-11-16T00:28:23.913Z,11.44
2022-11-16T00:29:23.874Z,11.44
2022-11-16T00:30:23.910Z,11.44
2022-11-16T00:31:23.888Z,11.42
2022-11-16T00:32:23.876Z,11.42
2022-11-16T00:33:23.832Z,11.42
2022-11-16T00:34:23.852Z,11.42
2022-11-16T00:35:23.819Z,11.44
2022-11-16T00:36:23.782Z,11.44
2022-11-16T00:37:23.818Z,11.45
2022-11-16T00:38:23.770Z,11.45
2022-11-16T00:39:23.742Z,11.45
2022-11-16T00:40:23.725Z,11.44
2022-11-16T00:41:23.752Z,11.44
2022-11-16T00:42:23.727Z,11.44
2022-11-16T00:43:24.440Z,11.44
2022-11-16T00:44:23.705Z,11.44
2022-11-16T00:45:23.688Z,11.44
2022-11-16T00:46:23.841Z,11.42
2022-11-16T00:47:24.433Z,11.42
2022-11-16T00:48:23.667Z,11.44
2022-11-16T00:49:23.611Z,11.42
2022-11-16T00:50:23.599Z,11.44
2022-11-16T00:51:23.601Z,11.44
2022-11-16T00:52:23.568Z,11.44
2022-11-16T00:53:23.820Z,11.44
2022-11-16T00:54:23.625Z,11.44
2022-11-16T00:55:23.574Z,11.42
2022-11-16T00:56:23.549Z,11.42
2022-11-16T00:57:23.515Z,11.44
2022-11-16T00:58:23.615Z,11.44
2022-11-16T00:59:23.528Z,11.45
2022-11-16T01:00:23.485Z,11.45
2022-11-16T01:01:23.502Z,11.44
2022-11-16T01:02:23.457Z,11.45
2022-11-16T01:03:23.468Z,11.45
2022-11-16T01:04:23.466Z,11.45
2022-11-16T01:05:23.408Z,11.44
2022-11-16T01:06:23.401Z,11.45
2022-11-16T01:07:23.453Z,11.45
2022-11-16T01:08:23.394Z,11.44
2022-11-16T01:09:23.383Z,11.45
2022-11-16T01:10:23.340Z,11.45
2022-11-16T01:11:23.337Z,11.45
2022-11-16T01:12:23.299Z,11.46
2022-11-16T01:13:23.344Z,11.45
2022-11-16T01:14:23.278Z,11.48
2022-11-16T01:15:23.275Z,11.46
2022-11-16T01:16:23.257Z,11.45
2022-11-16T01:17:23.273Z,11.45
2022-11-16T01:18:23.250Z,11.45
2022-11-16T01:19:23.216Z,11.45
2022-11-16T01:20:23.244Z,11.44
2022-11-16T01:21:23.298Z,11.44
2022-11-16T01:22:23.176Z,11.44
2022-11-16T01:23:23.179Z,11.42
2022-11-16T01:24:23.148Z,11.44
2022-11-16T01:25:23.154Z,11.44
2022-11-16T01:26:23.142Z,11.42
2022-11-16T01:27:23.273Z,11.42
2022-11-16T01:28:23.105Z,11.41
2022-11-16T01:29:23.134Z,11.42
2022-11-16T01:30:23.111Z,11.41
2022-11-16T01:31:23.100Z,11.41
2022-11-16T01:32:23.062Z,11.41
2022-11-16T01:33:23.131Z,11.41
2022-11-16T01:34:23.065Z,11.41
2022-11-16T01:35:23.006Z,11.39
2022-11-16T01:36:23.095Z,11.39
2022-11-16T01:37:23.005Z,11.39
2022-11-16T01:38:27.139Z,11.39
2022-11-16T01:39:24.010Z,11.38
2022-11-16T01:40:22.984Z,11.39
2022-11-16T01:41:22.976Z,11.39
2022-11-16T01:42:22.934Z,11.38
2022-11-16T01:43:23.230Z,11.38
2022-11-16T01:44:22.939Z,11.39
2022-11-16T01:45:22.892Z,11.39
2022-11-16T01:46:22.890Z,11.41
2022-11-16T01:47:22.859Z,11.41
2022-11-16T01:48:22.882Z,11.38
2022-11-16T01:49:22.858Z,11.39
2022-11-16T01:50:22.798Z,11.39
2022-11-16T01:51:22.819Z,11.39
2022-11-16T01:52:22.872Z,11.39
2022-11-16T01:53:22.840Z,11.41
2022-11-16T01:54:22.771Z,11.41
2022-11-16T01:55:22.789Z,11.41
2022-11-16T01:56:22.723Z,11.41
2022-11-16T01:57:22.852Z,11.41
2022-11-16T01:58:22.787Z,11.41
2022-11-16T01:59:22.692Z,11.39
2022-11-16T02:00:22.706Z,11.41
2022-11-16T02:01:22.839Z,11.41
2022-11-16T02:02:22.642Z,11.39
2022-11-16T02:03:22.669Z,11.41
2022-11-16T02:04:22.647Z,11.39
2022-11-16T02:05:22.648Z,11.39
2022-11-16T02:06:22.590Z,11.41
2022-11-16T02:07:22.691Z,11.41
2022-11-16T02:08:22.579Z,11.41
2022-11-16T02:09:22.595Z,11.41
2022-11-16T02:10:22.560Z,11.39
2022-11-16T02:11:22.546Z,11.39
2022-11-16T02:12:22.528Z,11.41
2022-11-16T02:13:22.556Z,11.41
2022-11-16T02:14:22.513Z,11.41
2022-11-16T02:15:22.488Z,11.41
2022-11-16T02:16:22.478Z,11.41
2022-11-16T02:17:22.492Z,11.41
2022-11-16T02:18:22.457Z,11.39
2022-11-16T02:19:22.430Z,11.39
2022-11-16T02:20:22.461Z,11.39
2022-11-16T02:21:22.428Z,11.42
2022-11-16T02:22:22.390Z,11.41
2022-11-16T02:23:22.416Z,11.39
2022-11-16T02:24:22.393Z,11.39
2022-11-16T02:25:22.369Z,11.39
2022-11-16T02:26:22.384Z,11.39
2022-11-16T02:27:23.289Z,11.39
2022-11-16T02:28:22.350Z,11.41
2022-11-16T02:29:22.331Z,11.39
2022-11-16T02:30:22.316Z,11.41
2022-11-16T02:31:22.267Z,11.41
2022-11-16T02:32:22.314Z,11.39
2022-11-16T02:33:22.342Z,11.41
2022-11-16T02:34:22.225Z,11.39
2022-11-16T02:35:31.219Z,11.39
2022-11-16T02:36:22.204Z,11.41
2022-11-16T02:37:22.214Z,11.39
2022-11-16T02:38:22.185Z,11.39
2022-11-16T02:39:22.175Z,11.39
2022-11-16T02:40:22.163Z,11.41
2022-11-16T02:41:22.162Z,11.39
2022-11-16T02:42:22.158Z,11.41
2022-11-16T02:43:22.193Z,11.39
2022-11-16T02:44:22.096Z,11.38
2022-11-16T02:45:22.137Z,11.38
2022-11-16T02:46:22.111Z,11.38
2022-11-16T02:47:22.120Z,11.36
2022-11-16T02:48:22.061Z,11.36
2022-11-16T02:49:22.092Z,11.38
2022-11-16T02:50:22.035Z,11.38
2022-11-16T02:51:22.079Z,11.38
2022-11-16T02:52:22.009Z,11.38
2022-11-16T02:53:22.019Z,11.39
2022-11-16T02:54:22.026Z,11.39
2022-11-16T02:55:22.021Z,11.39
2022-11-16T02:56:21.991Z,11.39
2022-11-16T02:57:21.980Z,11.41
2022-11-16T02:58:21.950Z,11.41
2022-11-16T02:59:21.903Z,11.39
2022-11-16T03:00:21.938Z,11.39
2022-11-16T03:01:21.965Z,11.41
2022-11-16T03:02:21.872Z,11.39
2022-11-16T03:03:21.880Z,11.39
2022-11-16T03:04:21.842Z,11.39
2022-11-16T03:05:21.862Z,11.38
2022-11-16T03:06:21.861Z,11.39
2022-11-16T03:07:21.854Z,11.39
2022-11-16T03:08:21.825Z,11.39
2022-11-16T03:09:21.797Z,11.41
2022-11-16T03:10:21.771Z,11.41
2022-11-16T03:11:21.779Z,11.39
2022-11-16T03:12:21.765Z,11.38
2022-11-16T03:13:21.757Z,11.39
2022-11-16T03:14:21.747Z,11.39
2022-11-16T03:15:21.680Z,11.39
2022-11-16T03:16:21.718Z,11.39
2022-11-16T03:17:21.701Z,11.39
2022-11-16T03:18:21.702Z,11.39
2022-11-16T03:19:21.664Z,11.39
2022-11-16T03:20:21.639Z,11.39
2022-11-16T03:21:21.908Z,11.39
2022-11-16T03:22:21.596Z,11.38
2022-11-16T03:23:21.607Z,11.39
2022-11-16T03:24:21.613Z,11.39
2022-11-16T03:25:21.614Z,11.39
2022-11-16T03:26:21.559Z,11.41
2022-11-16T03:27:21.609Z,11.38
2022-11-16T03:28:21.559Z,11.41
2022-11-16T03:29:21.568Z,11.41
2022-11-16T03:30:23.877Z,11.41
2022-11-16T03:31:21.505Z,11.39
2022-11-16T03:32:21.495Z,11.41
2022-11-16T03:33:21.458Z,11.39
2022-11-16T03:34:21.495Z,11.38
2022-11-16T03:35:21.447Z,11.41
2022-11-16T03:36:21.432Z,11.39
2022-11-16T03:37:21.429Z,11.38
2022-11-16T03:38:21.420Z,11.39
2022-11-16T03:39:21.447Z,11.38
2022-11-16T03:40:21.367Z,11.38
2022-11-16T03:41:21.384Z,11.38
2022-11-16T03:42:21.387Z,11.36
2022-11-16T03:43:21.371Z,11.39
2022-11-16T03:44:21.328Z,11.39
2022-11-16T03:45:21.350Z,11.38
2022-11-16T03:46:21.318Z,11.39
2022-11-16T03:47:21.333Z,11.38
2022-11-16T03:48:21.332Z,11.39
2022-11-16T03:49:21.256Z,11.39
2022-11-16T03:50:21.255Z,11.38
2022-11-16T03:51:21.260Z,11.38
2022-11-16T03:52:21.245Z,11.36
2022-11-16T03:53:21.232Z,11.36
2022-11-16T03:54:21.165Z,11.38
2022-11-16T03:55:21.226Z,11.36
2022-11-16T03:56:21.189Z,11.35
2022-11-16T03:57:21.162Z,11.36
2022-11-16T03:58:21.135Z,11.36
2022-11-16T03:59:21.191Z,11.33
2022-11-16T04:00:21.113Z,11.33
2022-11-16T04:01:21.188Z,11.35
2022-11-16T04:02:21.094Z,11.35
2022-11-16T04:03:21.094Z,11.33
2022-11-16T04:04:21.089Z,11.33
2022-11-16T04:05:21.039Z,11.36
2022-11-16T04:06:21.040Z,11.35
2022-11-16T04:07:21.085Z,11.36
2022-11-16T04:08:20.995Z,11.36
2022-11-16T04:09:21.008Z,11.36
2022-11-16T04:10:20.963Z,11.36
2022-11-16T04:11:20.943Z,11.36
2022-11-16T04:12:20.972Z,11.35
2022-11-16T04:13:20.959Z,11.36
2022-11-16T04:14:20.997Z,11.35
2022-11-16T04:15:20.979Z,11.36
2022-11-16T04:16:20.902Z,11.35
2022-11-16T04:17:20.932Z,11.35
2022-11-16T04:18:20.919Z,11.35
2022-11-16T04:19:20.946Z,11.35
2022-11-16T04:20:20.868Z,11.33
2022-11-16T04:21:20.848Z,11.36
2022-11-16T04:22:20.827Z,11.35
2022-11-16T04:23:20.791Z,11.33
2022-11-16T04:24:20.808Z,11.38
2022-11-16T04:25:20.753Z,11.36
2022-11-16T04:26:20.796Z,11.36
2022-11-16T04:27:20.758Z,11.36
2022-11-16T04:28:20.781Z,11.35
2022-11-16T04:29:20.767Z,11.36
2022-11-16T04:30:20.737Z,11.35
2022-11-16T04:31:20.690Z,11.36
2022-11-16T04:32:20.675Z,11.35
2022-11-16T04:33:20.724Z,11.33
2022-11-16T04:34:20.686Z,11.33
2022-11-16T04:35:20.670Z,11.30
2022-11-16T04:36:20.941Z,11.28
2022-11-16T04:37:20.627Z,11.28
2022-11-16T04:38:20.626Z,11.30
2022-11-16T04:39:20.642Z,11.28
2022-11-16T04:40:20.581Z,11.28
2022-11-16T04:41:20.549Z,11.26
2022-11-16T04:42:20.575Z,11.26
2022-11-16T04:43:20.547Z,11.27
2022-11-16T04:44:20.566Z,11.27
2022-11-16T04:45:20.528Z,11.24
2022-11-16T04:46:20.508Z,11.24
2022-11-16T04:47:20.515Z,11.26
2022-11-16T04:48:20.470Z,11.24
2022-11-16T04:49:20.492Z,11.24
2022-11-16T04:50:20.487Z,11.24
2022-11-16T04:51:20.429Z,11.24
2022-11-16T04:52:20.435Z,11.24
2022-11-16T04:53:20.422Z,11.24
2022-11-16T04:54:20.444Z,11.26
2022-11-16T04:55:20.379Z,11.24
2022-11-16T04:56:20.384Z,11.26
2022-11-16T04:57:20.404Z,11.24
2022-11-16T04:58:20.347Z,11.24
2022-11-16T04:59:20.355Z,11.24
2022-11-16T05:00:20.317Z,11.24
2022-11-16T05:01:20.409Z,11.24
2022-11-16T05:02:20.299Z,11.26
2022-11-16T05:03:20.341Z,11.26
2022-11-16T05:04:20.317Z,11.24
2022-11-16T05:05:20.246Z,11.27
2022-11-16T05:06:20.251Z,11.26
2022-11-16T05:07:20.273Z,11.26
2022-11-16T05:08:20.231Z,11.26
2022-11-16T05:09:20.195Z,11.26
2022-11-16T05:10:21.195Z,11.26
2022-11-16T05:11:20.193Z,11.26
2022-11-16T05:12:20.162Z,11.26
2022-11-16T05:13:21.184Z,11.26
2022-11-16T05:14:20.175Z,11.26
2022-11-16T05:15:20.172Z,11.26
2022-11-16T05:16:20.118Z,11.26
2022-11-16T05:17:20.105Z,11.24
2022-11-16T05:18:20.075Z,11.24
2022-11-16T05:19:20.083Z,11.24
2022-11-16T05:20:20.069Z,11.24
2022-11-16T05:21:20.041Z,11.21
2022-11-16T05:22:20.082Z,11.21
2022-11-16T05:23:20.034Z,11.21
2022-11-16T05:24:20.003Z,11.20
2022-11-16T05:25:19.981Z,11.20
2022-11-16T05:26:19.991Z,11.20
2022-11-16T05:27:20.010Z,11.19
2022-11-16T05:28:19.952Z,11.19
2022-11-16T05:29:19.972Z,11.19
2022-11-16T05:30:19.953Z,11.17
2022-11-16T05:31:19.910Z,11.20
2022-11-16T05:32:19.913Z,11.17
2022-11-16T05:33:19.903Z,11.19
2022-11-16T05:34:19.914Z,11.17
2022-11-16T05:35:19.887Z,11.17
2022-11-16T05:36:19.863Z,11.17
2022-11-16T05:37:19.869Z,11.17
2022-11-16T05:38:19.890Z,11.16
2022-11-16T05:39:19.839Z,11.17
2022-11-16T05:40:19.807Z,11.16
2022-11-16T05:41:19.803Z,11.16
2022-11-16T05:42:19.798Z,11.17
2022-11-16T05:43:19.761Z,11.17
2022-11-16T05:44:19.802Z,11.13
2022-11-16T05:45:21.161Z,11.13
2022-11-16T05:46:19.712Z,11.13
2022-11-16T05:47:19.701Z,11.12
2022-11-16T05:48:19.700Z,11.12
2022-11-16T05:49:19.680Z,11.11
2022-11-16T05:50:19.678Z,11.09
2022-11-16T05:51:19.638Z,11.09
2022-11-16T05:52:19.673Z,11.08
2022-11-16T05:53:19.621Z,11.06
2022-11-16T05:54:19.654Z,11.03
2022-11-16T05:55:19.569Z,11.03
2022-11-16T05:56:19.658Z,11.02
2022-11-16T05:57:19.577Z,10.98
2022-11-16T05:58:19.550Z,10.94
2022-11-16T05:59:19.587Z,10.91
2022-11-16T06:00:19.550Z,10.90
2022-11-16T06:01:19.510Z,10.88
2022-11-16T06:02:19.536Z,10.86
2022-11-16T06:03:19.524Z,10.81
2022-11-16T06:04:40.501Z,10.80
2022-11-16T06:05:19.557Z,10.78
2022-11-16T06:06:19.431Z,10.76
2022-11-16T06:07:19.515Z,10.73
2022-11-16T06:08:19.405Z,10.70
2022-11-16T06:09:19.419Z,10.72
2022-11-16T06:10:19.425Z,10.69
2022-11-16T06:11:19.415Z,10.69
2022-11-16T06:12:19.348Z,10.66
2022-11-16T06:13:19.404Z,10.65
2022-11-16T06:14:19.345Z,10.63
2022-11-16T06:15:19.370Z,10.60
2022-11-16T06:16:19.289Z,10.57
2022-11-16T06:17:19.335Z,10.55
2022-11-16T06:18:19.271Z,10.51
2022-11-16T06:19:19.314Z,10.49
2022-11-16T06:20:19.295Z,10.49
2022-11-16T06:21:19.275Z,10.44
2022-11-16T06:22:19.253Z,10.44
2022-11-16T06:23:19.254Z,10.44
2022-11-16T06:24:19.235Z,10.43
2022-11-16T06:25:19.178Z,10.42
2022-11-16T06:26:19.214Z,10.39
2022-11-16T06:27:19.182Z,10.38
2022-11-16T06:28:19.158Z,10.39
2022-11-16T06:29:19.173Z,10.38
2022-11-16T06:30:19.116Z,10.36
2022-11-16T06:31:19.122Z,10.36
2022-11-16T06:32:19.145Z,10.34
2022-11-16T06:33:19.096Z,10.35
2022-11-16T06:34:19.097Z,10.35
2022-11-16T06:35:19.122Z,10.32
2022-11-16T06:36:19.035Z,10.32
2022-11-16T06:37:19.061Z,10.34
2022-11-16T06:38:19.041Z,10.35
2022-11-16T06:39:19.040Z,10.32
2022-11-16T06:40:19.042Z,10.32
2022-11-16T06:41:18.972Z,10.31
2022-11-16T06:42:18.981Z,10.29
2022-11-16T06:43:19.041Z,10.28
2022-11-16T06:44:18.963Z,10.26
2022-11-16T06:45:18.961Z,10.25
2022-11-16T06:46:18.963Z,10.22
2022-11-16T06:47:18.885Z,10.18
2022-11-16T06:48:18.893Z,10.18
2022-11-16T06:49:18.917Z,10.16
2022-11-16T06:50:18.881Z,10.13
2022-11-16T06:51:18.857Z,10.11
2022-11-16T06:52:18.879Z,10.10
2022-11-16T06:53:39.803Z,10.10
2022-11-16T06:54:18.813Z,10.09
2022-11-16T06:55:18.792Z,10.07
2022-11-16T06:56:18.836Z,10.06
2022-11-16T06:57:18.788Z,10.06
2022-11-16T06:58:18.816Z,10.02
2022-11-16T06:59:18.866Z,10.01
2022-11-16T07:01:41.220Z,10.02
2022-11-16T07:02:36.822Z,10.01
2022-11-16T07:03:36.639Z,10.02
2022-11-16T07:04:45.115Z,9.99
2022-11-16T07:05:37.677Z,9.98
2022-11-16T07:06:45.554Z,9.98
2022-11-16T07:07:36.675Z,9.98
2022-11-16T07:08:36.948Z,9.96
2022-11-16T07:09:36.585Z,9.95
2022-11-16T07:11:54.824Z,9.89
2022-11-16T07:14:18.443Z,9.89
2022-11-16T07:15:27.592Z,9.88
2022-11-16T07:16:18.371Z,9.89
2022-11-16T07:18:51.593Z,9.86
2022-11-16T07:20:00.136Z,9.85
2022-11-16T07:20:51.693Z,9.83
2022-11-16T07:21:51.591Z,9.85
2022-11-16T07:22:59.747Z,9.83
2022-11-16T07:24:00.246Z,9.81
2022-11-16T07:25:00.938Z,9.81
2022-11-16T07:27:14.549Z,9.85
2022-11-16T07:28:15.321Z,9.80
2022-11-16T07:29:22.149Z,9.78
2022-11-16T07:30:15.348Z,9.80
2022-11-16T07:31:22.272Z,9.77
2022-11-16T07:32:14.319Z,9.78
2022-11-16T07:33:14.288Z,9.78
2022-11-16T07:34:14.261Z,9.77
2022-11-16T07:35:14.208Z,9.75
2022-11-16T07:37:34.214Z,9.73
2022-11-16T07:38:34.254Z,9.74
2022-11-16T07:39:34.142Z,9.74
2022-11-16T07:40:34.083Z,9.75
2022-11-16T07:41:42.517Z,9.74
2022-11-16T07:42:34.028Z,9.75
2022-11-16T07:44:37.703Z,9.73
2022-11-16T07:45:38.604Z,9.71
2022-11-16T07:46:46.719Z,9.74
2022-11-16T07:47:38.585Z,9.73
2022-11-16T07:48:38.720Z,9.74
2022-11-16T07:49:37.577Z,9.75
2022-11-16T07:50:37.497Z,9.75
2022-11-16T07:51:37.475Z,9.75
2022-11-16T07:52:37.493Z,9.75
2022-11-16T07:53:37.473Z,9.75
2022-11-16T07:54:38.474Z,9.78
2022-11-16T07:55:37.462Z,9.77
2022-11-16T07:56:37.454Z,9.78
2022-11-16T07:57:37.422Z,9.83
2022-11-16T07:58:37.410Z,9.85
2022-11-16T07:59:37.402Z,9.86
2022-11-16T08:00:37.377Z,9.86
2022-11-16T08:01:37.436Z,9.86
2022-11-16T08:02:37.334Z,9.88
2022-11-16T08:05:46.219Z,9.81
2022-11-16T08:06:46.197Z,9.78
2022-11-16T08:07:46.204Z,9.78
2022-11-16T08:08:46.145Z,9.77
2022-11-16T08:09:46.192Z,9.77
2022-11-16T08:10:46.147Z,9.77
2022-11-16T08:11:46.105Z,9.78
2022-11-16T08:12:46.069Z,9.81
2022-11-16T08:13:46.075Z,9.83
2022-11-16T08:14:46.077Z,9.88
2022-11-16T08:15:46.075Z,9.89
2022-11-16T08:16:46.049Z,9.91
2022-11-16T08:17:46.036Z,9.92
2022-11-16T08:18:45.977Z,9.95
2022-11-16T08:19:45.988Z,9.95
2022-11-16T08:20:45.995Z,9.96
2022-11-16T08:21:45.972Z,9.98
2022-11-16T08:22:45.958Z,9.96
2022-11-16T08:23:45.921Z,9.98
2022-11-16T08:24:45.932Z,10.01
2022-11-16T08:25:45.918Z,9.96
2022-11-16T08:26:45.904Z,9.96
2022-11-16T08:27:45.893Z,9.95
2022-11-16T08:28:45.894Z,9.92
2022-11-16T08:29:45.874Z,9.91
2022-11-16T08:30:49.649Z,9.91
2022-11-16T08:31:46.991Z,9.89
2022-11-16T08:32:45.807Z,9.88
2022-11-16T08:33:45.795Z,9.91
2022-11-16T08:34:45.805Z,9.91
2022-11-16T08:35:45.794Z,9.91
2022-11-16T08:36:45.774Z,9.89
2022-11-16T08:37:53.153Z,9.89
2022-11-16T08:38:45.741Z,9.92
2022-11-16T08:39:45.713Z,9.93
2022-11-16T08:40:45.721Z,9.96
2022-11-16T08:41:45.719Z,9.95
2022-11-16T08:42:45.697Z,9.95
2022-11-16T08:43:45.718Z,9.96
2022-11-16T08:44:45.643Z,9.99
2022-11-16T08:45:45.650Z,9.99
2022-11-16T08:46:45.707Z,10.02
2022-11-16T08:47:45.640Z,10.01
2022-11-16T08:48:45.637Z,10.04
2022-11-16T08:51:16.542Z,10.04
2022-11-16T08:52:31.722Z,10.06
2022-11-16T08:52:54.998Z,10.09
2022-11-16T08:53:54.968Z,10.10
2022-11-16T08:54:54.962Z,10.14
2022-11-16T08:55:55.003Z,10.17
2022-11-16T08:56:54.962Z,10.17
2022-11-16T08:57:54.991Z,10.20
2022-11-16T08:58:58.392Z,10.24
2022-11-16T08:59:54.888Z,10.26
2022-11-16T09:00:54.916Z,10.29
2022-11-16T09:01:55.037Z,10.29
2022-11-16T09:02:54.878Z,10.31
2022-11-16T09:03:54.875Z,10.32
2022-11-16T09:04:54.853Z,10.31
2022-11-16T09:05:54.872Z,10.28
2022-11-16T09:06:54.986Z,10.25
2022-11-16T09:07:54.814Z,10.22
2022-11-16T09:08:54.826Z,10.18
2022-11-16T09:09:54.793Z,10.16
2022-11-16T09:10:54.787Z,10.16
2022-11-16T09:12:15.775Z,10.18
2022-11-16T09:14:04.632Z,10.22
2022-11-16T09:15:04.669Z,10.25
2022-11-16T09:16:04.613Z,10.29
2022-11-16T09:17:04.614Z,10.31
2022-11-16T09:18:05.606Z,10.35
2022-11-16T09:19:04.573Z,10.36
2022-11-16T09:20:04.570Z,10.38
2022-11-16T09:21:04.551Z,10.39
2022-11-16T09:22:04.564Z,10.43
2022-11-16T09:23:04.525Z,10.46
2022-11-16T09:24:04.491Z,10.44
2022-11-16T09:25:04.606Z,10.42
2022-11-16T09:26:04.486Z,10.44
2022-11-16T09:27:04.474Z,10.47
2022-11-16T09:28:04.484Z,10.47
2022-11-16T09:29:04.470Z,10.49
2022-11-16T09:30:04.436Z,10.52
2022-11-16T09:31:04.467Z,10.55
2022-11-16T09:32:04.464Z,10.58
2022-11-16T09:33:04.408Z,10.58
2022-11-16T09:34:04.380Z,10.60
2022-11-16T09:35:04.369Z,10.65
2022-11-16T09:36:04.375Z,10.66
2022-11-16T09:37:04.389Z,10.69
2022-11-16T09:38:04.334Z,10.68
2022-11-16T09:39:30.657Z,10.69
2022-11-16T09:40:26.310Z,10.72
2022-11-16T09:41:25.297Z,10.75
2022-11-16T09:42:04.294Z,10.73
2022-11-16T09:43:04.258Z,10.75
2022-11-16T09:44:04.267Z,10.75
2022-11-16T09:45:04.266Z,10.73
2022-11-16T09:46:04.236Z,10.72
2022-11-16T09:47:04.207Z,10.76
2022-11-16T09:48:04.211Z,10.80
2022-11-16T09:49:04.177Z,10.84
2022-11-16T09:50:04.428Z,10.86
2022-11-16T09:51:25.187Z,10.90
2022-11-16T09:52:25.156Z,10.91
2022-11-16T09:53:04.146Z,10.94
2022-11-16T09:54:04.116Z,10.98
2022-11-16T09:55:04.173Z,11.01
2022-11-16T09:56:04.148Z,11.05
2022-11-16T09:57:09.383Z,11.11
2022-11-16T09:58:05.072Z,11.12
2022-11-16T09:59:04.047Z,11.11
2022-11-16T10:00:04.033Z,11.12
2022-11-16T10:01:04.060Z,11.12
2022-11-16T10:02:04.008Z,11.11
2022-11-16T10:03:04.018Z,11.11
2022-11-16T10:04:03.983Z,11.12
2022-11-16T10:05:03.966Z,11.12
2022-11-16T10:06:03.974Z,11.13
2022-11-16T10:07:04.948Z,11.16
2022-11-16T10:08:03.937Z,11.16
2022-11-16T10:09:03.947Z,11.16
2022-11-16T10:10:03.895Z,11.17
2022-11-16T10:11:03.906Z,11.17
2022-11-16T10:12:03.883Z,11.17
2022-11-16T10:13:03.868Z,11.20
2022-11-16T10:14:04.566Z,11.19
2022-11-16T10:15:03.875Z,11.19
2022-11-16T10:16:03.842Z,11.19
2022-11-16T10:17:03.803Z,11.19
2022-11-16T10:18:03.816Z,11.17
2022-11-16T10:19:03.804Z,11.19
2022-11-16T10:20:03.793Z,11.21
2022-11-16T10:21:04.771Z,11.21
2022-11-16T10:22:03.783Z,11.21
2022-11-16T10:23:03.744Z,11.21
2022-11-16T10:24:04.456Z,11.21
2022-11-16T10:25:04.663Z,11.21
2022-11-16T10:26:03.706Z,11.21
2022-11-16T10:27:03.695Z,11.24
2022-11-16T10:28:03.671Z,11.24
2022-11-16T10:29:03.652Z,11.26
2022-11-16T10:30:03.654Z,11.26
2022-11-16T10:31:03.645Z,11.26
2022-11-16T10:32:03.654Z,11.28
2022-11-16T10:33:08.095Z,11.28
2022-11-16T10:34:04.674Z,11.30
2022-11-16T10:35:03.610Z,11.31
2022-11-16T10:36:03.574Z,11.31
2022-11-16T10:37:03.583Z,11.33
2022-11-16T10:38:03.581Z,11.36
2022-11-16T10:39:03.561Z,11.36
2022-11-16T10:40:03.510Z,11.38
2022-11-16T10:41:03.502Z,11.41
2022-11-16T10:42:07.510Z,11.39
2022-11-16T10:43:03.478Z,11.41
2022-11-16T10:44:03.473Z,11.41
2022-11-16T10:45:03.487Z,11.41
2022-11-16T10:46:03.455Z,11.42
2022-11-16T10:47:03.462Z,11.45
2022-11-16T10:48:03.425Z,11.44
2022-11-16T10:49:03.411Z,11.46
2022-11-16T10:50:03.435Z,11.46
2022-11-16T10:51:03.360Z,11.48
2022-11-16T10:52:03.368Z,11.49
2022-11-16T10:53:03.356Z,11.49
2022-11-16T10:54:03.359Z,11.51
2022-11-16T10:55:03.386Z,11.51
2022-11-16T10:56:03.297Z,11.51
2022-11-16T10:57:03.311Z,11.46
2022-11-16T10:58:03.294Z,11.46
2022-11-16T10:59:03.285Z,11.48
2022-11-16T11:00:03.273Z,11.51
2022-11-16T11:01:03.315Z,11.51
2022-11-16T11:02:03.250Z,11.51
2022-11-16T11:03:03.349Z,11.51
2022-11-16T11:04:03.190Z,11.51
2022-11-16T11:05:03.199Z,11.54
2022-11-16T11:06:03.165Z,11.54
2022-11-16T11:07:03.207Z,11.54
2022-11-16T11:08:03.169Z,11.56
2022-11-16T11:09:03.153Z,11.56
2022-11-16T11:10:03.122Z,11.56
2022-11-16T11:11:03.129Z,11.54
2022-11-16T11:12:03.098Z,11.54
2022-11-16T11:13:03.089Z,11.56
2022-11-16T11:14:03.057Z,11.60
2022-11-16T11:15:03.083Z,11.64
2022-11-16T11:16:03.059Z,11.67
2022-11-16T11:17:03.035Z,11.70
2022-11-16T11:18:03.015Z,11.75
2022-11-16T11:19:03.016Z,11.78
2022-11-16T11:20:02.999Z,11.77
2022-11-16T11:21:02.967Z,11.77
2022-11-16T11:22:02.977Z,11.78
2022-11-16T11:23:02.980Z,11.81
2022-11-16T11:24:37.425Z,11.82
2022-11-16T11:25:03.938Z,11.84
2022-11-16T11:26:02.922Z,11.85
2022-11-16T11:27:02.919Z,11.85
2022-11-16T11:28:02.889Z,11.87
2022-11-16T11:29:02.888Z,11.87
2022-11-16T11:30:02.886Z,11.85
2022-11-16T11:31:02.875Z,11.88
2022-11-16T11:32:02.842Z,11.87
2022-11-16T11:33:02.813Z,11.87
2022-11-16T11:34:02.795Z,11.87
2022-11-16T11:35:02.796Z,11.87
2022-11-16T11:36:02.775Z,11.88
2022-11-16T11:37:02.796Z,11.88
2022-11-16T11:38:07.729Z,11.87
2022-11-16T11:39:03.841Z,11.85
2022-11-16T11:41:12.874Z,11.87
2022-11-16T11:42:12.122Z,11.84
2022-11-16T11:43:17.682Z,11.85
2022-11-16T11:44:13.093Z,11.88
2022-11-16T11:45:12.072Z,11.88
2022-11-16T11:46:12.083Z,11.93
2022-11-16T11:47:55.413Z,11.93
2022-11-16T11:48:13.037Z,11.90
2022-11-16T11:49:12.036Z,11.90
2022-11-16T11:50:12.033Z,11.88
2022-11-16T11:51:12.060Z,11.93
2022-11-16T11:52:12.195Z,11.88
2022-11-16T11:53:11.973Z,11.90
2022-11-16T11:54:11.959Z,11.93
2022-11-16T11:55:11.962Z,11.94
2022-11-16T11:56:11.965Z,11.96
2022-11-16T11:57:11.985Z,11.94
2022-11-16T11:58:11.955Z,11.96
2022-11-16T11:59:11.930Z,11.98
2022-11-16T12:00:11.914Z,12.01
2022-11-16T12:01:11.893Z,12.05
2022-11-16T12:02:11.852Z,12.08
2022-11-16T12:03:11.893Z,12.11
2022-11-16T12:04:11.844Z,12.12
2022-11-16T12:05:11.810Z,12.11
2022-11-16T12:06:11.844Z,12.13
2022-11-16T12:07:11.842Z,12.16
2022-11-16T12:08:11.794Z,12.13
2022-11-16T12:09:11.776Z,12.16
2022-11-16T12:10:11.790Z,12.18
2022-11-16T12:11:11.750Z,12.21
2022-11-16T12:12:14.685Z,12.22
2022-11-16T12:13:11.709Z,12.23
2022-11-16T12:14:11.723Z,12.25
2022-11-16T12:15:11.689Z,12.25
2022-11-16T12:16:11.731Z,12.23
2022-11-16T12:17:11.695Z,12.25
2022-11-16T12:18:11.695Z,12.23
2022-11-16T12:19:11.646Z,12.29
2022-11-16T12:20:11.635Z,12.29
2022-11-16T12:21:11.672Z,12.30
2022-11-16T12:22:11.598Z,12.31
2022-11-16T12:23:11.595Z,12.30
2022-11-16T12:24:11.582Z,12.31
2022-11-16T12:25:11.548Z,12.30
2022-11-16T12:26:11.615Z,12.33
2022-11-16T12:27:11.544Z,12.31
2022-11-16T12:28:11.534Z,12.36
2022-11-16T12:29:11.519Z,12.33
2022-11-16T12:30:11.510Z,12.36
2022-11-16T12:31:11.484Z,12.37
2022-11-16T12:32:11.500Z,12.34
2022-11-16T12:33:11.460Z,12.37
2022-11-16T12:34:11.436Z,12.34
2022-11-16T12:35:11.451Z,12.33
2022-11-16T12:36:11.430Z,12.31
2022-11-16T12:37:11.429Z,12.33
2022-11-16T12:38:11.418Z,12.29
2022-11-16T12:39:11.375Z,12.30
2022-11-16T12:40:11.366Z,12.25
2022-11-16T12:41:11.356Z,12.25
2022-11-16T12:42:11.335Z,12.22
2022-11-16T12:43:11.336Z,12.19
2022-11-16T12:44:11.339Z,12.18
2022-11-16T12:45:11.308Z,12.16
2022-11-16T12:46:11.315Z,12.16
2022-11-16T12:47:11.400Z,12.13
2022-11-16T12:48:11.295Z,12.15
2022-11-16T12:49:11.272Z,12.15
2022-11-16T12:50:11.268Z,12.18
2022-11-16T12:51:11.235Z,12.18
2022-11-16T12:52:11.204Z,12.18
2022-11-16T12:53:11.217Z,12.18
2022-11-16T12:54:11.214Z,12.18
2022-11-16T12:55:27.836Z,12.21
2022-11-16T12:56:12.163Z,12.22
2022-11-16T12:57:11.148Z,12.23
2022-11-16T12:58:11.131Z,12.22
2022-11-16T12:59:11.132Z,12.22
2022-11-16T13:00:11.219Z,12.19
2022-11-16T13:01:11.191Z,12.16
2022-11-16T13:02:11.082Z,12.13
2022-11-16T13:03:11.085Z,12.11
2022-11-16T13:04:11.070Z,12.07
2022-11-16T13:05:11.042Z,12.04
2022-11-16T13:06:11.025Z,12.01
2022-11-16T13:07:11.583Z,12.01
2022-11-16T13:08:11.000Z,12.03
2022-11-16T13:09:11.017Z,12.05
2022-11-16T13:10:11.023Z,12.04